Detall de PIREP

Printer-friendly versionPDF version

[2012/05/18 08:52:00]
Flight IATA:CT1005
Pilot Number:011
Company ICAO:CAT
Aircraft Type:F28/A
PAX:85
Departing Airport: EVVA
Destination Airport: EYKA
Alternate Airport:EYVI
Online: VATSIM
Route:TENSI DCT MIRMA N616 TOTRA M996 PIVOM
Flight Level:F190
No Slew and time accel
No pause
Crash detect
Detect pilot in Cockpit between each 30 and 45 minutes
08:52 Zero fuel Weight: 59657 Lbs, Fuel Weight: 9142 Lbs
08:52 VATSIM:EVVA 180820Z AUTO 23013G24KT CAVOK 10/06 Q1016
08:52 VATSIM:EYKA 180820Z 26009KT 220V310 9999 SCT039 11/03 Q1019
08:59 Parking Brakes off
09:03 Take-off
09:03 Take off Weight: 68480 Lbs
09:03 Wind: 226º @ 013 Knots Heading: 217º
09:03 POS N57º 21´ 15´´ E021º 32´ 22´´
09:03 Gear Up: 148 Knots
09:03 Flaps:3 at 148 Knots
09:03 Flaps:2 at 195 Knots
09:03 Flaps:1 at 200 Knots
09:04 Flaps:0 at 210 Knots
09:13 TOC
09:13 Fuel Weight: 7393 Lb
09:18 Wind:238º@043 Knots Heading: 167º Ground Speed: 377 Knots Altitude 19146 ft
09:25 TOD
09:25 Fuel Weight: 6321 Lb
09:33 Wind:269º@015 Knots Heading: 128º Ground Speed: 273 Knots Altitude 3313 ft
09:38 Flaps:1 at 243 Knots
09:38 Flaps:2 at 225 Knots
09:39 Flaps:3 at 207 Knots
09:41 Flaps:4 at 182 Knots
09:41 Gear Down: 182 Knots
09:41 Flaps:5 at 160 Knots
09:45 TouchDown:Rate -133 ft/min Speed: 114 Knots
09:45 VATSIM:EYKA 180920Z 27009KT 240V310 9999 BKN046 11/02 Q1020
09:45 Land
09:45 Wind:265º@009 Knots
09:45 Heading: 266º
09:45 Flight Duration: 00:42
09:45 Landing Weight: 64734 Lbs
09:45 POS N54º 57´ 49´´ E024º 04´ 45´´
09:47 Parking brakes on
09:47 Block to Block Duration: 00:48
09:47 Final Fuel: 5002 Lbls
09:47 Spent Fuel: 4140 Lbls
09:47 Flight Length: 86 NM
09:47 TOD Land Length: 51 NM

Exportar CSV

Powered by Drupal - Modified by Danger4k